Skip Navigation LinksHome page > Weather > Current weather Skip Navigation Links

Current Weather

Phoenix Sky Harbor Intl, Phoenix, Ariz.

For information only: do not use for flight planning or navigation.
Latest weather
Observation time Monday, October 18, 2021 11:51 AM MST
Local time Monday, October 18, 2021 12:22 PM MST
Flight conditions Visual Meteorological Conditions
Winds
Wind direction South (190°)
Wind speed 8 mph
Wind gusting to 21 mph
Visibility 10 mi.
Sky condition
Ceiling 5,500 ft. broken clouds
Cloud layer broken clouds 5,500 ft.
Temperature 81°F
Dewpoint 53°F
Altimeter 29.85 in.Hg
Derived measurements
Relative humidity 38%
Heat index 81°F
Density altitude 2817 ft.
Sea-level pressure 29.81 in.Hg
Remarks
Automated weather observing station with precipitation discriminator.
METAR KPHX 181851Z 19007G18KT 10SM BKN055 27/12 A2985 RMK AO2 SLP094 T02720117

Settings

Location code

InnerDrive.Weather 4.0.6770.0 Release CLR 4.0.30319.42000
Copyright ©2018 Inner Drive Technology. All rights reserved. Portions Copyright ©1986-2018 David Braverman.

Find weather

Site navigation


Skip Navigation Links

Place info

Page info

PayPal - The safer, easier way to pay online!

Return home.

Copyright ©2021 Inner Drive Technology. Purveyors of fine, hand-crafted computer software. Page printed 2021-10-18T19:22:35 UTC.